sensor_id;sensor_type;location;lat;lon;timestamp;pressure;altitude;pressure_sealevel;temperature;humidity
80149;BME280;69473;42.426;26.644;2024-01-27T00:02:18;99495.09;;;1.33;76.74
80149;BME280;69473;42.426;26.644;2024-01-27T00:04:43;99504.47;;;1.34;77.26
80149;BME280;69473;42.426;26.644;2024-01-27T00:07:09;99508.09;;;1.39;76.37
80149;BME280;69473;42.426;26.644;2024-01-27T00:09:34;99512.91;;;1.31;77.23
80149;BME280;69473;42.426;26.644;2024-01-27T00:12:00;99524.00;;;1.32;77.01
80149;BME280;69473;42.426;26.644;2024-01-27T00:14:26;99524.34;;;1.20;76.71
80149;BME280;69473;42.426;26.644;2024-01-27T00:16:52;99522.50;;;1.18;77.39
80149;BME280;69473;42.426;26.644;2024-01-27T00:19:18;99535.97;;;1.13;76.96
80149;BME280;69473;42.426;26.644;2024-01-27T00:21:43;99517.94;;;1.30;76.61
80149;BME280;69473;42.426;26.644;2024-01-27T00:24:09;99520.97;;;1.41;75.98
80149;BME280;69473;42.426;26.644;2024-01-27T00:26:34;99520.06;;;1.40;75.43
80149;BME280;69473;42.426;26.644;2024-01-27T00:29:00;99524.81;;;1.31;75.87
80149;BME280;69473;42.426;26.644;2024-01-27T00:31:25;99529.53;;;1.22;76.37
80149;BME280;69473;42.426;26.644;2024-01-27T00:33:51;99539.34;;;1.12;77.00
80149;BME280;69473;42.426;26.644;2024-01-27T00:36:16;99526.44;;;1.09;77.15
80149;BME280;69473;42.426;26.644;2024-01-27T00:38:43;99535.81;;;1.10;77.68
80149;BME280;69473;42.426;26.644;2024-01-27T00:41:08;99537.16;;;1.02;76.77
80149;BME280;69473;42.426;26.644;2024-01-27T00:43:38;99528.06;;;0.88;77.43
80149;BME280;69473;42.426;26.644;2024-01-27T00:46:03;99524.13;;;0.77;78.62
80149;BME280;69473;42.426;26.644;2024-01-27T00:48:29;99520.63;;;0.75;78.67
80149;BME280;69473;42.426;26.644;2024-01-27T00:50:54;99509.56;;;0.74;79.56
80149;BME280;69473;42.426;26.644;2024-01-27T00:53:20;99510.28;;;0.72;78.17
80149;BME280;69473;42.426;26.644;2024-01-27T00:55:45;99505.97;;;0.69;78.83
80149;BME280;69473;42.426;26.644;2024-01-27T00:58:11;99501.84;;;0.73;79.04
80149;BME280;69473;42.426;26.644;2024-01-27T01:00:36;99491.66;;;0.73;78.56
80149;BME280;69473;42.426;26.644;2024-01-27T01:03:02;99483.06;;;0.71;78.83
80149;BME280;69473;42.426;26.644;2024-01-27T01:05:28;99477.94;;;0.71;78.96
80149;BME280;69473;42.426;26.644;2024-01-27T01:07:53;99474.44;;;0.68;78.79
80149;BME280;69473;42.426;26.644;2024-01-27T01:10:19;99484.66;;;0.68;78.11
80149;BME280;69473;42.426;26.644;2024-01-27T01:12:44;99479.44;;;0.65;79.08
80149;BME280;69473;42.426;26.644;2024-01-27T01:15:10;99471.44;;;0.58;78.63
80149;BME280;69473;42.426;26.644;2024-01-27T01:17:35;99468.56;;;0.50;78.71
80149;BME280;69473;42.426;26.644;2024-01-27T01:20:01;99470.16;;;0.48;78.78
80149;BME280;69473;42.426;26.644;2024-01-27T01:22:27;99470.31;;;0.51;79.42
80149;BME280;69473;42.426;26.644;2024-01-27T01:24:53;99468.28;;;0.44;78.99
80149;BME280;69473;42.426;26.644;2024-01-27T01:27:18;99470.41;;;0.35;79.31
80149;BME280;69473;42.426;26.644;2024-01-27T01:29:46;99472.97;;;0.35;79.04
80149;BME280;69473;42.426;26.644;2024-01-27T01:32:12;99465.97;;;0.31;79.04
80149;BME280;69473;42.426;26.644;2024-01-27T01:34:37;99464.22;;;0.30;79.01
80149;BME280;69473;42.426;26.644;2024-01-27T01:37:03;99457.41;;;0.29;80.19
80149;BME280;69473;42.426;26.644;2024-01-27T01:39:29;99445.16;;;0.21;79.11
80149;BME280;69473;42.426;26.644;2024-01-27T01:41:54;99446.94;;;0.22;79.08
80149;BME280;69473;42.426;26.644;2024-01-27T01:44:20;99454.03;;;0.30;79.52
80149;BME280;69473;42.426;26.644;2024-01-27T01:46:47;99452.94;;;0.25;79.50
80149;BME280;69473;42.426;26.644;2024-01-27T01:49:12;99440.19;;;0.25;79.26
80149;BME280;69473;42.426;26.644;2024-01-27T01:51:38;99443.56;;;0.23;78.73
80149;BME280;69473;42.426;26.644;2024-01-27T01:54:05;99447.06;;;0.26;79.05
80149;BME280;69473;42.426;26.644;2024-01-27T01:56:30;99444.16;;;0.18;78.89
80149;BME280;69473;42.426;26.644;2024-01-27T01:58:56;99443.41;;;0.20;78.78
80149;BME280;69473;42.426;26.644;2024-01-27T02:01:22;99443.16;;;0.14;78.40
80149;BME280;69473;42.426;26.644;2024-01-27T02:03:54;99441.00;;;0.04;78.46
80149;BME280;69473;42.426;26.644;2024-01-27T02:06:20;99435.50;;;0.14;79.56
80149;BME280;69473;42.426;26.644;2024-01-27T02:08:46;99428.84;;;0.18;79.11
80149;BME280;69473;42.426;26.644;2024-01-27T02:11:12;99414.84;;;0.28;78.26
80149;BME280;69473;42.426;26.644;2024-01-27T02:13:37;99409.88;;;0.31;78.72
80149;BME280;69473;42.426;26.644;2024-01-27T02:16:03;99412.44;;;0.31;78.90
80149;BME280;69473;42.426;26.644;2024-01-27T02:18:29;99413.38;;;0.33;79.07
80149;BME280;69473;42.426;26.644;2024-01-27T02:20:54;99405.19;;;0.40;79.11
80149;BME280;69473;42.426;26.644;2024-01-27T02:23:20;99401.88;;;0.41;78.90
80149;BME280;69473;42.426;26.644;2024-01-27T02:25:45;99410.84;;;0.52;77.62
80149;BME280;69473;42.426;26.644;2024-01-27T02:28:11;99408.81;;;0.64;77.59
80149;BME280;69473;42.426;26.644;2024-01-27T02:30:38;99414.44;;;0.77;76.33
80149;BME280;69473;42.426;26.644;2024-01-27T02:33:04;99411.41;;;0.85;75.48
80149;BME280;69473;42.426;26.644;2024-01-27T02:35:30;99420.69;;;0.83;76.17
80149;BME280;69473;42.426;26.644;2024-01-27T02:37:56;99417.25;;;0.83;76.23
80149;BME280;69473;42.426;26.644;2024-01-27T02:40:21;99431.88;;;0.87;76.01
80149;BME280;69473;42.426;26.644;2024-01-27T02:42:47;99427.84;;;0.92;75.71
80149;BME280;69473;42.426;26.644;2024-01-27T02:45:13;99433.09;;;0.95;75.68
80149;BME280;69473;42.426;26.644;2024-01-27T02:47:38;99424.75;;;0.99;75.51
80149;BME280;69473;42.426;26.644;2024-01-27T02:50:04;99428.25;;;1.01;75.27
80149;BME280;69473;42.426;26.644;2024-01-27T02:52:32;99424.50;;;0.93;75.32
80149;BME280;69473;42.426;26.644;2024-01-27T02:54:58;99428.53;;;0.88;76.00
80149;BME280;69473;42.426;26.644;2024-01-27T02:57:23;99422.50;;;0.86;75.79
80149;BME280;69473;42.426;26.644;2024-01-27T02:59:49;99425.59;;;0.79;75.91
80149;BME280;69473;42.426;26.644;2024-01-27T03:02:17;99420.88;;;0.68;76.26
80149;BME280;69473;42.426;26.644;2024-01-27T03:04:43;99435.66;;;0.76;75.74
80149;BME280;69473;42.426;26.644;2024-01-27T03:07:08;99430.19;;;0.66;75.67
80149;BME280;69473;42.426;26.644;2024-01-27T03:09:34;99441.69;;;0.58;76.28
80149;BME280;69473;42.426;26.644;2024-01-27T03:11:59;99437.34;;;0.56;76.21
80149;BME280;69473;42.426;26.644;2024-01-27T03:14:25;99441.56;;;0.55;76.28
80149;BME280;69473;42.426;26.644;2024-01-27T03:16:52;99427.22;;;0.38;75.58
80149;BME280;69473;42.426;26.644;2024-01-27T03:19:17;99428.69;;;0.33;76.42
80149;BME280;69473;42.426;26.644;2024-01-27T03:21:43;99431.34;;;0.16;77.00
80149;BME280;69473;42.426;26.644;2024-01-27T03:24:08;99427.16;;;-0.01;76.57
80149;BME280;69473;42.426;26.644;2024-01-27T03:26:34;99430.38;;;-0.05;77.55
80149;BME280;69473;42.426;26.644;2024-01-27T03:29:00;99432.38;;;0.02;77.82
80149;BME280;69473;42.426;26.644;2024-01-27T03:31:32;99432.91;;;-0.05;77.94
80149;BME280;69473;42.426;26.644;2024-01-27T03:33:59;99441.94;;;-0.12;78.52
80149;BME280;69473;42.426;26.644;2024-01-27T03:36:25;99440.13;;;-0.14;78.88
80149;BME280;69473;42.426;26.644;2024-01-27T03:38:51;99438.25;;;-0.18;78.03
80149;BME280;69473;42.426;26.644;2024-01-27T03:41:16;99443.34;;;-0.18;78.81
80149;BME280;69473;42.426;26.644;2024-01-27T03:43:42;99440.81;;;-0.18;78.77
80149;BME280;69473;42.426;26.644;2024-01-27T03:46:07;99435.47;;;-0.23;78.15
80149;BME280;69473;42.426;26.644;2024-01-27T03:48:33;99436.19;;;-0.26;79.33
80149;BME280;69473;42.426;26.644;2024-01-27T03:51:00;99434.31;;;-0.30;78.91
80149;BME280;69473;42.426;26.644;2024-01-27T03:53:26;99428.34;;;-0.30;79.35
80149;BME280;69473;42.426;26.644;2024-01-27T03:55:53;99426.16;;;-0.22;79.16
80149;BME280;69473;42.426;26.644;2024-01-27T03:58:19;99421.50;;;-0.13;78.36
80149;BME280;69473;42.426;26.644;2024-01-27T04:00:45;99420.03;;;-0.08;78.40
80149;BME280;69473;42.426;26.644;2024-01-27T04:03:10;99422.06;;;-0.01;78.26
80149;BME280;69473;42.426;26.644;2024-01-27T04:05:36;99419.75;;;0.04;77.62
80149;BME280;69473;42.426;26.644;2024-01-27T04:08:02;99417.09;;;0.02;77.14
80149;BME280;69473;42.426;26.644;2024-01-27T04:10:28;99416.09;;;-0.19;77.89
80149;BME280;69473;42.426;26.644;2024-01-27T04:12:53;99419.31;;;-0.24;78.68
80149;BME280;69473;42.426;26.644;2024-01-27T04:15:19;99419.19;;;-0.27;78.98
80149;BME280;69473;42.426;26.644;2024-01-27T04:17:44;99422.41;;;-0.31;79.53
80149;BME280;69473;42.426;26.644;2024-01-27T04:20:10;99429.94;;;-0.32;79.77
80149;BME280;69473;42.426;26.644;2024-01-27T04:22:36;99427.09;;;-0.38;79.27
80149;BME280;69473;42.426;26.644;2024-01-27T04:25:02;99425.13;;;-0.44;79.42
80149;BME280;69473;42.426;26.644;2024-01-27T04:27:29;99425.28;;;-0.41;79.96
80149;BME280;69473;42.426;26.644;2024-01-27T04:29:55;99430.38;;;-0.41;79.66
80149;BME280;69473;42.426;26.644;2024-01-27T04:32:22;99428.13;;;-0.35;79.87
80149;BME280;69473;42.426;26.644;2024-01-27T04:34:49;99413.50;;;-0.39;79.29
80149;BME280;69473;42.426;26.644;2024-01-27T04:37:14;99403.63;;;-0.33;79.89
80149;BME280;69473;42.426;26.644;2024-01-27T04:39:40;99395.75;;;-0.19;79.05
80149;BME280;69473;42.426;26.644;2024-01-27T04:42:06;99389.56;;;-0.25;78.56
80149;BME280;69473;42.426;26.644;2024-01-27T04:44:32;99394.94;;;-0.18;78.35
80149;BME280;69473;42.426;26.644;2024-01-27T04:46:57;99396.53;;;-0.20;78.12
80149;BME280;69473;42.426;26.644;2024-01-27T04:49:23;99401.88;;;-0.34;78.85
80149;BME280;69473;42.426;26.644;2024-01-27T04:51:49;99410.28;;;-0.35;79.95
80149;BME280;69473;42.426;26.644;2024-01-27T04:54:14;99418.16;;;-0.30;79.78
80149;BME280;69473;42.426;26.644;2024-01-27T04:56:40;99417.59;;;-0.25;79.82
80149;BME280;69473;42.426;26.644;2024-01-27T04:59:05;99406.22;;;-0.13;79.15
80149;BME280;69473;42.426;26.644;2024-01-27T05:01:32;99402.75;;;-0.15;79.10
80149;BME280;69473;42.426;26.644;2024-01-27T05:03:57;99401.25;;;-0.10;78.99
80149;BME280;69473;42.426;26.644;2024-01-27T05:06:23;99398.22;;;-0.03;78.46
80149;BME280;69473;42.426;26.644;2024-01-27T05:08:48;99394.44;;;-0.11;78.63
80149;BME280;69473;42.426;26.644;2024-01-27T05:11:15;99400.25;;;-0.14;78.61
80149;BME280;69473;42.426;26.644;2024-01-27T05:13:42;99390.78;;;-0.16;77.96
80149;BME280;69473;42.426;26.644;2024-01-27T05:16:09;99396.16;;;-0.10;78.15
80149;BME280;69473;42.426;26.644;2024-01-27T05:18:34;99386.09;;;-0.07;78.33
80149;BME280;69473;42.426;26.644;2024-01-27T05:21:00;99389.63;;;-0.05;78.65
80149;BME280;69473;42.426;26.644;2024-01-27T05:23:25;99391.22;;;-0.07;77.79
80149;BME280;69473;42.426;26.644;2024-01-27T05:25:51;99384.50;;;-0.05;78.21
80149;BME280;69473;42.426;26.644;2024-01-27T05:28:16;99382.03;;;-0.04;77.67
80149;BME280;69473;42.426;26.644;2024-01-27T05:30:42;99387.88;;;-0.06;78.59
80149;BME280;69473;42.426;26.644;2024-01-27T05:33:09;99386.69;;;-0.13;79.03
80149;BME280;69473;42.426;26.644;2024-01-27T05:35:34;99384.50;;;-0.05;77.89
80149;BME280;69473;42.426;26.644;2024-01-27T05:38:00;99383.06;;;0.00;78.01
80149;BME280;69473;42.426;26.644;2024-01-27T05:40:25;99386.53;;;0.02;77.87
80149;BME280;69473;42.426;26.644;2024-01-27T05:42:51;99393.34;;;0.03;77.77
80149;BME280;69473;42.426;26.644;2024-01-27T05:45:17;99390.16;;;0.07;77.88
80149;BME280;69473;42.426;26.644;2024-01-27T05:47:43;99383.31;;;0.06;77.65
80149;BME280;69473;42.426;26.644;2024-01-27T05:50:09;99366.97;;;0.01;77.16
80149;BME280;69473;42.426;26.644;2024-01-27T05:52:35;99367.88;;;0.03;77.73
80149;BME280;69473;42.426;26.644;2024-01-27T05:55:02;99377.47;;;0.09;76.96
80149;BME280;69473;42.426;26.644;2024-01-27T05:57:28;99374.28;;;0.13;77.24
80149;BME280;69473;42.426;26.644;2024-01-27T05:59:53;99375.81;;;0.09;77.76
80149;BME280;69473;42.426;26.644;2024-01-27T06:02:19;99379.25;;;0.10;77.79
80149;BME280;69473;42.426;26.644;2024-01-27T06:04:45;99381.72;;;0.08;78.61
80149;BME280;69473;42.426;26.644;2024-01-27T06:07:11;99394.16;;;0.02;78.26
80149;BME280;69473;42.426;26.644;2024-01-27T06:09:37;99408.28;;;0.13;78.87
80149;BME280;69473;42.426;26.644;2024-01-27T06:12:03;99412.84;;;0.20;78.70
80149;BME280;69473;42.426;26.644;2024-01-27T06:14:28;99409.28;;;0.17;77.98
80149;BME280;69473;42.426;26.644;2024-01-27T06:16:54;99412.69;;;0.17;78.18
80149;BME280;69473;42.426;26.644;2024-01-27T06:19:19;99408.69;;;0.22;78.94
80149;BME280;69473;42.426;26.644;2024-01-27T06:21:45;99401.19;;;0.26;78.30
80149;BME280;69473;42.426;26.644;2024-01-27T06:24:10;99401.47;;;0.32;77.76
80149;BME280;69473;42.426;26.644;2024-01-27T06:26:36;99384.81;;;0.40;78.00
80149;BME280;69473;42.426;26.644;2024-01-27T06:29:03;99385.06;;;0.46;77.92
80149;BME280;69473;42.426;26.644;2024-01-27T06:31:29;99386.06;;;0.50;77.32
80149;BME280;69473;42.426;26.644;2024-01-27T06:33:55;99393.81;;;0.51;77.73
80149;BME280;69473;42.426;26.644;2024-01-27T06:36:20;99387.16;;;0.55;78.63
80149;BME280;69473;42.426;26.644;2024-01-27T06:38:50;99385.59;;;0.58;77.74
80149;BME280;69473;42.426;26.644;2024-01-27T06:41:16;99386.56;;;0.60;76.91
80149;BME280;69473;42.426;26.644;2024-01-27T06:43:42;99386.00;;;0.67;77.39
80149;BME280;69473;42.426;26.644;2024-01-27T06:46:09;99389.53;;;0.71;78.00
80149;BME280;69473;42.426;26.644;2024-01-27T06:48:35;99381.28;;;0.77;77.56
80149;BME280;69473;42.426;26.644;2024-01-27T06:51:00;99391.63;;;0.80;77.35
80149;BME280;69473;42.426;26.644;2024-01-27T06:53:26;99389.19;;;0.83;78.08
80149;BME280;69473;42.426;26.644;2024-01-27T06:55:52;99386.78;;;0.86;77.42
80149;BME280;69473;42.426;26.644;2024-01-27T06:58:17;99386.91;;;0.89;76.22
80149;BME280;69473;42.426;26.644;2024-01-27T07:00:43;99385.44;;;0.94;75.58
80149;BME280;69473;42.426;26.644;2024-01-27T07:03:10;99375.34;;;0.97;75.39
80149;BME280;69473;42.426;26.644;2024-01-27T07:05:36;99370.63;;;1.06;75.94
80149;BME280;69473;42.426;26.644;2024-01-27T07:08:08;99374.09;;;1.08;74.84
80149;BME280;69473;42.426;26.644;2024-01-27T07:10:35;99362.97;;;1.06;74.76
80149;BME280;69473;42.426;26.644;2024-01-27T07:13:01;99361.22;;;1.05;74.04
80149;BME280;69473;42.426;26.644;2024-01-27T07:15:26;99357.03;;;1.07;74.80
80149;BME280;69473;42.426;26.644;2024-01-27T07:17:52;99359.84;;;1.13;73.77
80149;BME280;69473;42.426;26.644;2024-01-27T07:20:19;99362.28;;;1.10;74.70
80149;BME280;69473;42.426;26.644;2024-01-27T07:22:47;99365.91;;;1.15;75.30
80149;BME280;69473;42.426;26.644;2024-01-27T07:25:13;99364.38;;;1.21;75.30
80149;BME280;69473;42.426;26.644;2024-01-27T07:27:39;99371.84;;;1.37;74.45
80149;BME280;69473;42.426;26.644;2024-01-27T07:30:05;99362.31;;;1.54;72.61
80149;BME280;69473;42.426;26.644;2024-01-27T07:32:31;99367.94;;;1.68;73.43
80149;BME280;69473;42.426;26.644;2024-01-27T07:34:57;99367.13;;;1.91;72.51
80149;BME280;69473;42.426;26.644;2024-01-27T07:37:22;99363.28;;;2.02;71.53
80149;BME280;69473;42.426;26.644;2024-01-27T07:39:48;99358.59;;;2.15;71.03
80149;BME280;69473;42.426;26.644;2024-01-27T07:42:14;99352.03;;;2.45;69.44
80149;BME280;69473;42.426;26.644;2024-01-27T07:44:41;99346.34;;;2.78;68.73
80149;BME280;69473;42.426;26.644;2024-01-27T07:47:07;99361.06;;;3.11;66.55
80149;BME280;69473;42.426;26.644;2024-01-27T07:49:34;99365.03;;;3.82;64.98
80149;BME280;69473;42.426;26.644;2024-01-27T07:52:00;99366.09;;;4.49;62.02
80149;BME280;69473;42.426;26.644;2024-01-27T07:54:26;99368.16;;;3.72;61.02
80149;BME280;69473;42.426;26.644;2024-01-27T07:56:51;99365.53;;;3.16;63.88
80149;BME280;69473;42.426;26.644;2024-01-27T07:59:17;99379.84;;;2.84;65.90
80149;BME280;69473;42.426;26.644;2024-01-27T08:01:44;99376.44;;;2.60;67.04
80149;BME280;69473;42.426;26.644;2024-01-27T08:04:09;99382.41;;;2.36;67.98
80149;BME280;69473;42.426;26.644;2024-01-27T08:06:46;99381.28;;;2.28;68.40
80149;BME280;69473;42.426;26.644;2024-01-27T08:09:11;99373.16;;;2.16;68.96
80149;BME280;69473;42.426;26.644;2024-01-27T08:11:37;99374.78;;;2.14;70.32
80149;BME280;69473;42.426;26.644;2024-01-27T08:14:03;99374.78;;;2.14;70.37
80149;BME280;69473;42.426;26.644;2024-01-27T08:16:28;99365.81;;;2.02;70.42
80149;BME280;69473;42.426;26.644;2024-01-27T08:18:54;99368.38;;;2.02;70.03
80149;BME280;69473;42.426;26.644;2024-01-27T08:21:19;99375.63;;;1.90;70.71
80149;BME280;69473;42.426;26.644;2024-01-27T08:23:45;99370.63;;;1.93;70.54
80149;BME280;69473;42.426;26.644;2024-01-27T08:26:10;99371.41;;;1.92;70.60
80149;BME280;69473;42.426;26.644;2024-01-27T08:28:36;99371.91;;;1.82;70.16
80149;BME280;69473;42.426;26.644;2024-01-27T08:31:02;99365.41;;;1.90;70.68
80149;BME280;69473;42.426;26.644;2024-01-27T08:33:27;99367.25;;;1.94;71.15
80149;BME280;69473;42.426;26.644;2024-01-27T08:35:53;99369.31;;;2.04;70.78
80149;BME280;69473;42.426;26.644;2024-01-27T08:38:19;99377.09;;;2.07;71.13
80149;BME280;69473;42.426;26.644;2024-01-27T08:40:44;99369.44;;;2.07;71.41
80149;BME280;69473;42.426;26.644;2024-01-27T08:43:10;99373.28;;;2.19;71.86
80149;BME280;69473;42.426;26.644;2024-01-27T08:45:37;99366.28;;;2.15;72.84
80149;BME280;69473;42.426;26.644;2024-01-27T08:48:04;99365.28;;;2.11;72.56
80149;BME280;69473;42.426;26.644;2024-01-27T08:50:30;99363.47;;;2.07;72.28
80149;BME280;69473;42.426;26.644;2024-01-27T08:52:55;99360.50;;;1.96;72.41
80149;BME280;69473;42.426;26.644;2024-01-27T08:55:21;99361.31;;;1.95;73.07
80149;BME280;69473;42.426;26.644;2024-01-27T08:57:49;99362.38;;;2.00;74.00
80149;BME280;69473;42.426;26.644;2024-01-27T09:00:15;99366.59;;;2.00;74.19
80149;BME280;69473;42.426;26.644;2024-01-27T09:02:45;99381.03;;;1.99;74.26
80149;BME280;69473;42.426;26.644;2024-01-27T09:05:11;99379.31;;;1.98;74.35
80149;BME280;69473;42.426;26.644;2024-01-27T09:07:36;99377.34;;;1.91;75.48
80149;BME280;69473;42.426;26.644;2024-01-27T09:10:02;99373.50;;;1.80;76.21
80149;BME280;69473;42.426;26.644;2024-01-27T09:12:28;99378.50;;;1.77;76.40
80149;BME280;69473;42.426;26.644;2024-01-27T09:14:54;99385.38;;;1.78;77.51
80149;BME280;69473;42.426;26.644;2024-01-27T09:17:20;99378.69;;;1.81;78.15
80149;BME280;69473;42.426;26.644;2024-01-27T09:19:46;99381.38;;;1.84;78.04
80149;BME280;69473;42.426;26.644;2024-01-27T09:22:11;99379.94;;;1.93;79.28
80149;BME280;69473;42.426;26.644;2024-01-27T09:24:37;99387.16;;;2.03;78.97
80149;BME280;69473;42.426;26.644;2024-01-27T09:27:03;99382.94;;;2.03;78.72
80149;BME280;69473;42.426;26.644;2024-01-27T09:29:29;99389.16;;;2.12;79.80
80149;BME280;69473;42.426;26.644;2024-01-27T09:31:55;99388.38;;;2.13;79.64
80149;BME280;69473;42.426;26.644;2024-01-27T09:34:20;99391.72;;;2.12;80.26
80149;BME280;69473;42.426;26.644;2024-01-27T09:36:46;99389.41;;;2.18;81.48
80149;BME280;69473;42.426;26.644;2024-01-27T09:39:11;99388.50;;;2.16;82.47
80149;BME280;69473;42.426;26.644;2024-01-27T09:41:37;99386.84;;;2.18;83.36
80149;BME280;69473;42.426;26.644;2024-01-27T09:44:04;99396.19;;;2.17;83.83
80149;BME280;69473;42.426;26.644;2024-01-27T09:46:31;99393.72;;;2.19;84.57
80149;BME280;69473;42.426;26.644;2024-01-27T09:48:58;99396.94;;;2.15;85.14
80149;BME280;69473;42.426;26.644;2024-01-27T09:51:25;99384.97;;;2.12;85.54
80149;BME280;69473;42.426;26.644;2024-01-27T09:53:53;99392.84;;;2.18;85.74
80149;BME280;69473;42.426;26.644;2024-01-27T09:56:18;99389.28;;;2.15;86.09
80149;BME280;69473;42.426;26.644;2024-01-27T09:58:46;99393.72;;;2.19;86.05
80149;BME280;69473;42.426;26.644;2024-01-27T10:01:12;99392.06;;;2.21;86.62
80149;BME280;69473;42.426;26.644;2024-01-27T10:03:41;99387.19;;;2.27;87.03
80149;BME280;69473;42.426;26.644;2024-01-27T10:06:10;99377.94;;;2.30;87.43
80149;BME280;69473;42.426;26.644;2024-01-27T10:08:37;99381.66;;;2.39;87.86
80149;BME280;69473;42.426;26.644;2024-01-27T10:11:08;99372.25;;;2.38;87.54
80149;BME280;69473;42.426;26.644;2024-01-27T10:13:34;99377.94;;;2.30;88.34
80149;BME280;69473;42.426;26.644;2024-01-27T10:16:07;99383.03;;;2.30;88.70
80149;BME280;69473;42.426;26.644;2024-01-27T10:18:34;99382.78;;;2.23;89.26
80149;BME280;69473;42.426;26.644;2024-01-27T10:21:17;99379.47;;;2.25;89.89
80149;BME280;69473;42.426;26.644;2024-01-27T10:23:48;99370.22;;;2.29;90.26
80149;BME280;69473;42.426;26.644;2024-01-27T10:26:14;99367.69;;;2.30;90.50
80149;BME280;69473;42.426;26.644;2024-01-27T10:28:39;99376.31;;;2.33;90.88
80149;BME280;69473;42.426;26.644;2024-01-27T10:31:10;99378.81;;;2.31;90.92
80149;BME280;69473;42.426;26.644;2024-01-27T10:33:35;99373.81;;;2.34;91.20
80149;BME280;69473;42.426;26.644;2024-01-27T10:36:01;99359.47;;;2.38;91.43
80149;BME280;69473;42.426;26.644;2024-01-27T10:38:38;99360.44;;;2.41;91.48
80149;BME280;69473;42.426;26.644;2024-01-27T10:41:08;99362.16;;;2.42;91.61
80149;BME280;69473;42.426;26.644;2024-01-27T10:43:36;99358.81;;;2.43;91.62
80149;BME280;69473;42.426;26.644;2024-01-27T10:46:05;99355.44;;;2.44;91.73
80149;BME280;69473;42.426;26.644;2024-01-27T10:48:34;99354.78;;;2.50;92.31
80149;BME280;69473;42.426;26.644;2024-01-27T10:51:07;99354.03;;;2.52;91.75
80149;BME280;69473;42.426;26.644;2024-01-27T10:53:35;99348.22;;;2.58;91.94
80149;BME280;69473;42.426;26.644;2024-01-27T10:56:04;99348.41;;;2.63;91.59
80149;BME280;69473;42.426;26.644;2024-01-27T10:58:35;99342.44;;;2.64;90.81
80149;BME280;69473;42.426;26.644;2024-01-27T11:01:11;99344.19;;;2.65;90.73
80149;BME280;69473;42.426;26.644;2024-01-27T11:03:40;99338.19;;;2.64;90.73
80149;BME280;69473;42.426;26.644;2024-01-27T11:06:06;99333.34;;;2.72;90.32
80149;BME280;69473;42.426;26.644;2024-01-27T11:08:33;99340.38;;;2.77;90.49
80149;BME280;69473;42.426;26.644;2024-01-27T11:11:01;99324.22;;;2.80;90.57
80149;BME280;69473;42.426;26.644;2024-01-27T11:13:29;99326.94;;;2.85;91.28
80149;BME280;69473;42.426;26.644;2024-01-27T11:15:56;99332.72;;;2.79;91.41
80149;BME280;69473;42.426;26.644;2024-01-27T11:18:22;99335.16;;;2.74;91.09
80149;BME280;69473;42.426;26.644;2024-01-27T11:20:47;99333.88;;;2.62;90.59
80149;BME280;69473;42.426;26.644;2024-01-27T11:23:13;99336.22;;;2.56;90.83
80149;BME280;69473;42.426;26.644;2024-01-27T11:25:42;99327.00;;;2.61;90.41
80149;BME280;69473;42.426;26.644;2024-01-27T11:28:12;99339.00;;;2.62;90.47
80149;BME280;69473;42.426;26.644;2024-01-27T11:30:47;99325.56;;;2.69;90.64
80149;BME280;69473;42.426;26.644;2024-01-27T11:33:14;99320.88;;;2.81;89.77
80149;BME280;69473;42.426;26.644;2024-01-27T11:35:39;99338.72;;;2.80;90.33
80149;BME280;69473;42.426;26.644;2024-01-27T11:38:05;99326.00;;;2.81;90.06
80149;BME280;69473;42.426;26.644;2024-01-27T11:40:31;99333.16;;;2.91;90.57
80149;BME280;69473;42.426;26.644;2024-01-27T11:42:58;99328.31;;;3.00;90.27
80149;BME280;69473;42.426;26.644;2024-01-27T11:45:24;99323.50;;;3.10;90.11
80149;BME280;69473;42.426;26.644;2024-01-27T11:47:49;99324.38;;;3.10;90.04
80149;BME280;69473;42.426;26.644;2024-01-27T11:50:18;99328.34;;;3.28;90.93
80149;BME280;69473;42.426;26.644;2024-01-27T11:52:44;99330.84;;;3.26;88.83
80149;BME280;69473;42.426;26.644;2024-01-27T11:55:10;99329.22;;;3.28;88.95
80149;BME280;69473;42.426;26.644;2024-01-27T11:57:35;99332.31;;;3.18;89.45
80149;BME280;69473;42.426;26.644;2024-01-27T12:00:01;99326.91;;;3.09;90.57
80149;BME280;69473;42.426;26.644;2024-01-27T12:02:27;99330.06;;;3.01;90.79
80149;BME280;69473;42.426;26.644;2024-01-27T12:04:52;99323.31;;;3.04;91.07
80149;BME280;69473;42.426;26.644;2024-01-27T12:07:19;99325.13;;;3.08;91.90
80149;BME280;69473;42.426;26.644;2024-01-27T12:09:45;99321.88;;;3.12;92.18
80149;BME280;69473;42.426;26.644;2024-01-27T12:12:13;99323.41;;;3.07;92.55
80149;BME280;69473;42.426;26.644;2024-01-27T12:14:47;99322.63;;;3.09;93.01
80149;BME280;69473;42.426;26.644;2024-01-27T12:17:13;99309.84;;;3.09;92.52
80149;BME280;69473;42.426;26.644;2024-01-27T12:19:46;99315.91;;;3.13;92.76
80149;BME280;69473;42.426;26.644;2024-01-27T12:22:27;99315.28;;;3.20;91.87
80149;BME280;69473;42.426;26.644;2024-01-27T12:24:54;99318.97;;;3.28;91.27
80149;BME280;69473;42.426;26.644;2024-01-27T12:27:22;99317.50;;;3.36;91.15
80149;BME280;69473;42.426;26.644;2024-01-27T12:29:49;99326.09;;;3.38;90.71
80149;BME280;69473;42.426;26.644;2024-01-27T12:32:15;99323.50;;;3.37;91.21
80149;BME280;69473;42.426;26.644;2024-01-27T12:34:42;99328.72;;;3.40;91.23
80149;BME280;69473;42.426;26.644;2024-01-27T12:37:11;99326.19;;;3.41;90.88
80149;BME280;69473;42.426;26.644;2024-01-27T12:39:37;99329.59;;;3.40;91.22
80149;BME280;69473;42.426;26.644;2024-01-27T12:42:04;99327.84;;;3.39;90.88
80149;BME280;69473;42.426;26.644;2024-01-27T12:44:29;99336.34;;;3.38;91.28
80149;BME280;69473;42.426;26.644;2024-01-27T12:46:55;99343.22;;;3.39;91.53
80149;BME280;69473;42.426;26.644;2024-01-27T12:49:22;99344.09;;;3.40;91.84
80149;BME280;69473;42.426;26.644;2024-01-27T12:51:48;99341.56;;;3.41;91.45
80149;BME280;69473;42.426;26.644;2024-01-27T12:54:14;99343.31;;;3.42;91.59